createdAt,value
2018-03-25T00:01:38.802Z,1.90
2018-03-25T00:04:06.252Z,2.00
2018-03-25T00:06:33.731Z,1.90
2018-03-25T00:09:01.184Z,2.00
2018-03-25T00:11:28.639Z,2.10
2018-03-25T00:13:56.102Z,1.80
2018-03-25T00:16:23.606Z,1.90
2018-03-25T00:18:51.066Z,1.80
2018-03-25T00:21:18.532Z,1.90
2018-03-25T00:23:45.984Z,1.80
2018-03-25T00:26:14.219Z,1.70
2018-03-25T00:28:42.440Z,1.70
2018-03-25T00:31:09.923Z,1.70
2018-03-25T00:33:37.387Z,1.70
2018-03-25T00:36:05.646Z,1.80
2018-03-25T00:38:33.108Z,1.70
2018-03-25T00:41:00.586Z,1.70
2018-03-25T00:43:28.039Z,1.70
2018-03-25T00:45:55.494Z,1.70
2018-03-25T00:48:22.954Z,1.70
2018-03-25T00:50:50.446Z,1.70
2018-03-25T00:53:17.893Z,1.80
2018-03-25T00:55:46.121Z,2.00
2018-03-25T00:58:13.581Z,1.90
2018-03-25T01:00:41.037Z,2.00
2018-03-25T01:03:08.490Z,2.00
2018-03-25T01:05:36.719Z,2.00
2018-03-25T01:08:04.943Z,1.90
2018-03-25T01:10:32.415Z,1.80
2018-03-25T01:12:59.874Z,1.70
2018-03-25T01:18:22.913Z,1.50
2018-03-25T01:20:50.362Z,1.90
2018-03-25T01:23:17.838Z,1.50
2018-03-25T01:25:45.285Z,1.40
2018-03-25T01:28:12.752Z,1.20
2018-03-25T01:30:40.209Z,1.20
2018-03-25T01:33:07.664Z,1.10
2018-03-25T01:35:35.131Z,1.00
2018-03-25T01:38:02.598Z,1.10
2018-03-25T01:40:30.064Z,1.10
2018-03-25T01:42:57.539Z,1.20
2018-03-25T01:45:25.762Z,1.20
2018-03-25T01:47:53.231Z,1.20
2018-03-25T01:50:20.685Z,1.20
2018-03-25T01:52:48.142Z,1.30
2018-03-25T01:55:15.594Z,1.20
2018-03-25T01:57:43.053Z,1.20
2018-03-25T02:00:10.520Z,1.10
2018-03-25T02:02:37.986Z,1.10
2018-03-25T02:05:05.446Z,1.00
2018-03-25T02:07:32.905Z,0.90
2018-03-25T02:10:00.372Z,0.90
2018-03-25T02:12:27.833Z,1.10
2018-03-25T02:14:56.084Z,0.80
2018-03-25T02:17:23.532Z,0.80
2018-03-25T02:19:51.036Z,0.90
2018-03-25T02:22:18.867Z,0.70
2018-03-25T02:24:46.321Z,0.70
2018-03-25T02:27:13.786Z,0.80
2018-03-25T02:29:41.247Z,0.80
2018-03-25T02:32:08.709Z,0.80
2018-03-25T02:34:36.175Z,0.80
2018-03-25T02:37:04.403Z,0.70
2018-03-25T02:39:31.854Z,0.70
2018-03-25T02:41:59.312Z,0.80
2018-03-25T02:44:26.775Z,0.80
2018-03-25T02:46:54.231Z,0.70
2018-03-25T02:49:21.694Z,0.80
2018-03-25T02:51:49.923Z,0.80
2018-03-25T02:54:18.150Z,0.80
2018-03-25T02:56:45.613Z,0.70
2018-03-25T02:59:13.057Z,0.80
2018-03-25T03:01:40.514Z,0.80
2018-03-25T03:04:07.973Z,0.90
2018-03-25T03:06:35.435Z,0.70
2018-03-25T03:09:02.893Z,0.60
2018-03-25T03:11:30.351Z,0.50
2018-03-25T03:13:57.804Z,0.50
2018-03-25T03:16:25.458Z,0.40
2018-03-25T03:18:53.727Z,0.40
2018-03-25T03:21:21.187Z,0.80
2018-03-25T03:23:48.627Z,0.10
2018-03-25T03:26:16.479Z,0.30
2018-03-25T03:28:43.946Z,0.50
2018-03-25T03:31:11.395Z,0.30
2018-03-25T03:33:38.859Z,0.40
2018-03-25T03:36:06.323Z,0.30
2018-03-25T03:38:33.783Z,0.40
2018-03-25T03:41:01.234Z,0.40
2018-03-25T03:43:28.698Z,0.40
2018-03-25T03:45:56.166Z,0.40
2018-03-25T03:48:23.629Z,0.50
2018-03-25T03:50:51.090Z,0.50
2018-03-25T03:53:18.570Z,0.50
2018-03-25T03:55:46.035Z,0.40
2018-03-25T03:58:14.271Z,0.40
2018-03-25T04:00:41.721Z,0.40
2018-03-25T04:03:09.170Z,0.30
2018-03-25T04:05:36.634Z,0.30
2018-03-25T04:08:04.093Z,0.30
2018-03-25T04:10:31.557Z,0.20
2018-03-25T04:12:59.019Z,0.20
2018-03-25T04:15:26.478Z,0.20
2018-03-25T04:17:53.942Z,0.00
2018-03-25T04:20:21.408Z,-0.40
2018-03-25T04:22:48.873Z,-0.40
2018-03-25T04:25:17.097Z,0.00
2018-03-25T04:27:44.586Z,-0.40
2018-03-25T04:30:12.045Z,-0.40
2018-03-25T04:32:39.493Z,-0.10
2018-03-25T04:35:06.939Z,0.00
2018-03-25T04:37:34.389Z,0.00
2018-03-25T04:40:01.838Z,0.00
2018-03-25T04:42:29.310Z,0.00
2018-03-25T04:44:56.770Z,0.00
2018-03-25T04:47:24.845Z,0.00
2018-03-25T04:49:52.305Z,0.10
2018-03-25T04:52:19.766Z,0.10
2018-03-25T04:54:47.226Z,0.20
2018-03-25T04:57:14.699Z,0.10
2018-03-25T04:59:42.930Z,0.00
2018-03-25T05:02:10.387Z,0.00
2018-03-25T05:04:37.847Z,-0.10
2018-03-25T05:07:05.319Z,-0.10
2018-03-25T05:09:32.798Z,-0.20
2018-03-25T05:12:00.251Z,-0.30
2018-03-25T05:14:27.714Z,-0.30
2018-03-25T05:16:55.179Z,-0.30
2018-03-25T05:19:23.407Z,-0.20
2018-03-25T05:21:50.878Z,0.00
2018-03-25T05:24:18.337Z,0.30
2018-03-25T05:26:45.806Z,0.00
2018-03-25T05:29:13.671Z,-0.10
2018-03-25T05:31:41.150Z,-0.10
2018-03-25T05:34:09.450Z,-0.10
2018-03-25T05:36:36.859Z,-0.20
2018-03-25T05:39:05.242Z,-0.20
2018-03-25T05:41:32.711Z,-0.20
2018-03-25T05:44:00.949Z,-0.10
2018-03-25T05:46:28.415Z,-0.20
2018-03-25T05:48:55.879Z,-0.10
2018-03-25T05:51:23.336Z,0.00
2018-03-25T05:53:50.814Z,0.00
2018-03-25T05:56:19.048Z,0.10
2018-03-25T05:58:47.275Z,0.20
2018-03-25T06:01:15.541Z,0.20
2018-03-25T06:03:43.741Z,0.30
2018-03-25T06:06:11.189Z,0.20
2018-03-25T06:08:38.659Z,0.30
2018-03-25T06:11:06.122Z,0.30
2018-03-25T06:13:33.632Z,0.40
2018-03-25T06:16:01.051Z,0.40
2018-03-25T06:18:28.507Z,0.50
2018-03-25T06:20:56.331Z,0.50
2018-03-25T06:23:24.587Z,0.60
2018-03-25T06:25:52.010Z,0.60
2018-03-25T06:28:19.657Z,0.70
2018-03-25T06:30:47.127Z,1.10
2018-03-25T06:33:14.578Z,0.80
2018-03-25T06:35:42.038Z,0.90
2018-03-25T06:38:09.499Z,1.10
2018-03-25T06:40:36.957Z,1.20
2018-03-25T06:43:04.810Z,1.30
2018-03-25T06:45:32.273Z,1.60
2018-03-25T06:47:59.735Z,1.80
2018-03-25T06:50:27.192Z,2.20
2018-03-25T06:52:54.647Z,2.50
2018-03-25T06:55:22.106Z,2.80
2018-03-25T06:57:49.565Z,3.10
2018-03-25T07:00:17.029Z,3.30
2018-03-25T07:02:46.002Z,3.80
2018-03-25T07:05:13.458Z,3.80
2018-03-25T07:07:41.681Z,4.40
2018-03-25T07:10:09.912Z,4.70
2018-03-25T07:12:37.387Z,4.60
2018-03-25T07:15:04.856Z,5.00
2018-03-25T07:17:32.310Z,5.20
2018-03-25T07:19:59.778Z,5.50
2018-03-25T07:22:27.296Z,5.70
2018-03-25T07:24:55.470Z,6.40
2018-03-25T07:27:22.927Z,6.80
2018-03-25T07:29:50.379Z,6.60
2018-03-25T07:32:17.852Z,7.90
2018-03-25T07:34:45.305Z,7.50
2018-03-25T07:37:12.765Z,7.50
2018-03-25T07:39:40.221Z,7.90
2018-03-25T07:42:07.681Z,8.20
2018-03-25T07:44:35.146Z,8.50
2018-03-25T07:47:02.598Z,8.70
2018-03-25T07:49:30.071Z,9.10
2018-03-25T07:51:57.538Z,9.20
2018-03-25T07:54:28.425Z,9.60
2018-03-25T07:56:55.878Z,9.90
2018-03-25T07:59:23.338Z,10.10
2018-03-25T08:01:50.795Z,10.20
2018-03-25T08:04:18.251Z,10.50
2018-03-25T08:06:45.708Z,10.70
2018-03-25T08:09:13.227Z,10.80
2018-03-25T08:11:40.650Z,10.90
2018-03-25T08:14:08.114Z,11.30
2018-03-25T08:16:35.567Z,11.60
2018-03-25T08:19:03.030Z,11.60
2018-03-25T08:21:30.498Z,11.80
2018-03-25T08:23:57.960Z,12.10
2018-03-25T08:26:26.192Z,12.50
2018-03-25T08:28:53.668Z,12.10
2018-03-25T08:31:21.123Z,12.50
2018-03-25T08:33:48.645Z,12.40
2018-03-25T08:36:16.416Z,12.40
2018-03-25T08:38:43.873Z,12.40
2018-03-25T08:41:12.107Z,12.70
2018-03-25T08:43:40.330Z,13.10
2018-03-25T08:46:07.803Z,13.00
2018-03-25T08:48:35.271Z,13.20
2018-03-25T08:51:02.732Z,13.30
2018-03-25T08:53:30.181Z,13.70
2018-03-25T08:55:57.649Z,13.50
2018-03-25T08:58:25.094Z,13.60
2018-03-25T09:00:52.556Z,13.80
2018-03-25T09:03:20.015Z,13.70
2018-03-25T09:05:47.481Z,13.60
2018-03-25T09:08:14.933Z,13.80
2018-03-25T09:10:42.401Z,14.00
2018-03-25T09:13:10.626Z,14.80
2018-03-25T09:15:38.102Z,14.70
2018-03-25T09:18:05.582Z,14.60
2018-03-25T09:20:33.037Z,14.80
2018-03-25T09:23:00.484Z,14.80
2018-03-25T09:25:27.959Z,14.90
2018-03-25T09:27:55.410Z,15.00
2018-03-25T09:30:22.874Z,15.10
2018-03-25T09:32:54.469Z,15.30
2018-03-25T09:35:21.937Z,15.30
2018-03-25T09:37:49.398Z,13.80
2018-03-25T09:40:16.847Z,15.40
2018-03-25T09:42:44.313Z,15.40
2018-03-25T09:45:12.164Z,15.40
2018-03-25T09:47:40.396Z,15.80
2018-03-25T09:50:08.625Z,16.10
2018-03-25T09:52:36.091Z,16.10
2018-03-25T09:55:03.543Z,16.00
2018-03-25T09:57:31.019Z,16.00
2018-03-25T09:59:58.486Z,16.00
2018-03-25T10:02:26.831Z,16.00
2018-03-25T10:04:54.285Z,16.00
2018-03-25T10:07:21.753Z,16.00
2018-03-25T10:09:49.209Z,16.10
2018-03-25T10:12:16.666Z,16.10
2018-03-25T10:14:44.126Z,16.20
2018-03-25T10:17:11.585Z,16.20
2018-03-25T10:19:39.057Z,16.20
2018-03-25T10:22:06.527Z,16.40
2018-03-25T10:24:33.986Z,16.50
2018-03-25T10:27:02.211Z,16.70
2018-03-25T10:29:29.671Z,17.00
2018-03-25T10:31:57.121Z,16.60
2018-03-25T10:34:24.592Z,16.70
2018-03-25T10:36:52.060Z,16.70
2018-03-25T10:39:19.509Z,16.80
2018-03-25T10:41:46.979Z,17.30
2018-03-25T10:44:14.430Z,16.90
2018-03-25T10:46:41.912Z,17.00
2018-03-25T10:49:10.127Z,16.40
2018-03-25T10:51:37.590Z,16.40
2018-03-25T10:54:05.049Z,16.50
2018-03-25T10:56:32.523Z,16.60
2018-03-25T10:58:59.989Z,16.90
2018-03-25T11:01:27.466Z,17.10
2018-03-25T11:03:54.910Z,17.30
2018-03-25T11:06:22.370Z,17.20
2018-03-25T11:08:49.847Z,17.10
2018-03-25T11:11:18.073Z,17.20
2018-03-25T11:13:45.522Z,17.10
2018-03-25T11:16:13.008Z,17.30
2018-03-25T11:18:40.462Z,17.40
2018-03-25T11:21:07.913Z,17.60
2018-03-25T11:23:35.369Z,17.70
2018-03-25T11:26:02.829Z,17.60
2018-03-25T11:28:30.297Z,17.60
2018-03-25T11:30:57.760Z,17.50
2018-03-25T11:33:25.216Z,17.40
2018-03-25T11:35:52.718Z,17.30
2018-03-25T11:38:20.338Z,17.40
2018-03-25T11:40:47.871Z,17.30
2018-03-25T11:43:15.449Z,17.20
2018-03-25T11:45:43.766Z,16.90
2018-03-25T11:48:11.331Z,16.90
2018-03-25T11:50:38.844Z,16.80
2018-03-25T11:53:06.354Z,16.80
2018-03-25T11:55:33.889Z,16.80
2018-03-25T11:58:01.449Z,17.00
2018-03-25T12:00:29.010Z,17.00
2018-03-25T12:02:56.553Z,17.10
2018-03-25T12:05:24.040Z,17.20
2018-03-25T12:07:51.496Z,17.10
2018-03-25T12:10:18.959Z,17.10
2018-03-25T12:12:46.415Z,17.10
2018-03-25T12:15:13.879Z,17.10
2018-03-25T12:17:41.348Z,17.10
2018-03-25T12:20:08.796Z,17.00
2018-03-25T12:22:36.268Z,17.10
2018-03-25T12:25:03.722Z,17.20
2018-03-25T12:27:31.189Z,17.20
2018-03-25T12:29:58.810Z,16.90
2018-03-25T12:32:26.263Z,17.00
2018-03-25T12:34:53.723Z,17.10
2018-03-25T12:37:21.955Z,17.00
2018-03-25T12:39:49.410Z,17.00
2018-03-25T12:42:16.878Z,17.00
2018-03-25T12:44:44.369Z,17.00
2018-03-25T12:47:12.569Z,17.10
2018-03-25T12:49:40.022Z,17.00
2018-03-25T12:52:07.487Z,17.10
2018-03-25T12:54:34.959Z,17.20
2018-03-25T12:57:02.419Z,17.10
2018-03-25T12:59:29.874Z,17.10
2018-03-25T13:01:57.330Z,16.70
2018-03-25T13:04:24.790Z,16.60
2018-03-25T13:06:52.271Z,16.70
2018-03-25T13:09:20.501Z,17.00
2018-03-25T13:11:47.987Z,16.90
2018-03-25T13:14:15.437Z,16.90
2018-03-25T13:16:42.901Z,16.80
2018-03-25T13:19:10.350Z,16.80
2018-03-25T13:21:37.801Z,16.80
2018-03-25T13:24:06.026Z,16.90
2018-03-25T13:26:33.494Z,16.90
2018-03-25T13:29:00.942Z,16.80
2018-03-25T13:31:28.390Z,17.00
2018-03-25T13:33:55.850Z,16.90
2018-03-25T13:36:24.067Z,16.80
2018-03-25T13:38:51.521Z,16.80
2018-03-25T13:41:18.985Z,16.80
2018-03-25T13:43:46.443Z,16.90
2018-03-25T13:46:13.898Z,16.90
2018-03-25T13:48:41.362Z,17.00
2018-03-25T13:51:09.582Z,16.90
2018-03-25T13:53:37.050Z,16.80
2018-03-25T13:56:04.500Z,16.80
2018-03-25T13:58:31.978Z,16.70
2018-03-25T14:00:59.450Z,16.50
2018-03-25T14:03:26.893Z,16.50
2018-03-25T14:05:54.399Z,16.60
2018-03-25T14:08:21.872Z,16.60
2018-03-25T14:10:49.307Z,16.60
2018-03-25T14:13:16.787Z,16.50
2018-03-25T14:15:45.006Z,16.70
2018-03-25T14:18:12.462Z,16.70
2018-03-25T14:20:39.921Z,16.80
2018-03-25T14:23:07.403Z,16.80
2018-03-25T14:25:34.831Z,16.60
2018-03-25T14:28:02.279Z,16.60
2018-03-25T14:30:29.736Z,16.60
2018-03-25T14:32:57.193Z,16.70
2018-03-25T14:35:24.667Z,16.30
2018-03-25T14:37:52.128Z,16.50
2018-03-25T14:40:19.587Z,16.70
2018-03-25T14:42:47.046Z,16.60
2018-03-25T14:45:14.501Z,16.60
2018-03-25T14:47:41.967Z,16.40
2018-03-25T14:50:09.427Z,16.40
2018-03-25T14:52:36.886Z,16.40
2018-03-25T14:55:04.341Z,16.40
2018-03-25T14:57:31.822Z,16.50
2018-03-25T15:00:00.033Z,16.40
2018-03-25T15:02:27.493Z,16.40
2018-03-25T15:04:55.723Z,16.60
2018-03-25T15:07:23.180Z,16.50
2018-03-25T15:09:51.410Z,16.40
2018-03-25T15:12:18.925Z,16.30
2018-03-25T15:14:46.333Z,16.30
2018-03-25T15:17:13.781Z,16.30
2018-03-25T15:19:41.276Z,16.20
2018-03-25T15:22:08.688Z,16.20
2018-03-25T15:24:36.138Z,16.10
2018-03-25T15:27:03.602Z,16.10
2018-03-25T15:29:31.050Z,16.20
2018-03-25T15:31:58.512Z,16.20
2018-03-25T15:34:25.968Z,16.10
2018-03-25T15:36:53.427Z,16.10
2018-03-25T15:39:20.897Z,15.80
2018-03-25T15:41:48.342Z,15.80
2018-03-25T15:44:15.834Z,15.90
2018-03-25T15:46:43.290Z,16.00
2018-03-25T15:49:10.750Z,15.90
2018-03-25T15:51:38.978Z,15.80
2018-03-25T15:54:06.443Z,15.80
2018-03-25T15:56:33.900Z,15.70
2018-03-25T15:59:01.364Z,15.60
2018-03-25T16:01:28.819Z,15.60
2018-03-25T16:03:56.286Z,15.60
2018-03-25T16:06:23.759Z,15.60
2018-03-25T16:08:51.227Z,15.60
2018-03-25T16:11:18.680Z,15.50
2018-03-25T16:13:46.144Z,15.50
2018-03-25T16:16:14.379Z,15.40
2018-03-25T16:18:41.829Z,15.40
2018-03-25T16:21:09.299Z,15.40
2018-03-25T16:23:36.746Z,15.40
2018-03-25T16:26:04.205Z,15.40
2018-03-25T16:28:31.654Z,15.40
2018-03-25T16:30:59.131Z,15.40
2018-03-25T16:33:26.581Z,15.40
2018-03-25T16:35:54.090Z,15.40
2018-03-25T16:38:21.556Z,15.30
2018-03-25T16:40:49.010Z,15.40
2018-03-25T16:43:16.473Z,14.70
2018-03-25T16:45:43.938Z,15.20
2018-03-25T16:48:11.394Z,15.20
2018-03-25T16:50:38.861Z,15.20
2018-03-25T16:53:06.318Z,15.10
2018-03-25T16:55:33.771Z,15.00
2018-03-25T16:58:01.223Z,14.90
2018-03-25T17:00:28.687Z,14.90
2018-03-25T17:02:56.141Z,14.80
2018-03-25T17:05:23.601Z,14.70
2018-03-25T17:07:51.060Z,14.70
2018-03-25T17:10:18.518Z,14.60
2018-03-25T17:12:45.971Z,14.60
2018-03-25T17:15:13.485Z,14.50
2018-03-25T17:17:41.419Z,14.50
2018-03-25T17:20:08.873Z,14.40
2018-03-25T17:22:36.326Z,14.30
2018-03-25T17:25:03.834Z,14.30
2018-03-25T17:27:32.067Z,14.10
2018-03-25T17:29:59.559Z,14.10
2018-03-25T17:32:27.793Z,13.90
2018-03-25T17:34:55.249Z,14.00
2018-03-25T17:37:22.707Z,13.40
2018-03-25T17:39:50.158Z,13.10
2018-03-25T17:42:17.617Z,12.90
2018-03-25T17:44:45.094Z,13.00
2018-03-25T17:47:12.549Z,12.70
2018-03-25T17:49:40.026Z,12.50
2018-03-25T17:52:08.251Z,12.00
2018-03-25T17:54:35.713Z,11.90
2018-03-25T17:57:03.188Z,11.80
2018-03-25T17:59:30.659Z,11.50
2018-03-25T18:01:58.210Z,11.40
2018-03-25T18:04:26.532Z,11.20
2018-03-25T18:06:54.080Z,11.10
2018-03-25T18:09:21.635Z,11.20
2018-03-25T18:11:49.174Z,11.20
2018-03-25T18:14:16.749Z,11.10
2018-03-25T18:16:44.281Z,11.20
2018-03-25T18:19:12.570Z,10.90
2018-03-25T18:21:40.885Z,10.60
2018-03-25T18:24:08.445Z,10.50
2018-03-25T18:26:36.001Z,10.40
2018-03-25T18:29:03.527Z,10.00
2018-03-25T18:31:31.086Z,10.10
2018-03-25T18:33:58.587Z,9.90
2018-03-25T18:36:26.128Z,9.80
2018-03-25T18:38:53.618Z,10.30
2018-03-25T18:41:21.150Z,9.70
2018-03-25T18:43:48.656Z,9.70
2018-03-25T18:46:16.933Z,9.90
2018-03-25T18:48:45.260Z,9.80
2018-03-25T18:51:12.737Z,9.70
2018-03-25T18:53:40.190Z,9.70
2018-03-25T18:56:07.654Z,9.50
2018-03-25T18:58:36.006Z,9.50
2018-03-25T19:01:03.472Z,9.50
2018-03-25T19:03:30.924Z,9.60
2018-03-25T19:05:58.387Z,9.60
2018-03-25T19:08:25.842Z,9.70
2018-03-25T19:10:53.301Z,9.60
2018-03-25T19:13:20.752Z,9.40
2018-03-25T19:15:48.208Z,9.30
2018-03-25T19:18:15.682Z,9.20
2018-03-25T19:20:43.150Z,9.10
2018-03-25T19:23:11.010Z,9.20
2018-03-25T19:25:38.481Z,9.10
2018-03-25T19:28:05.935Z,9.20
2018-03-25T19:30:33.415Z,9.30
2018-03-25T19:33:00.872Z,9.30
2018-03-25T19:35:29.333Z,9.10
2018-03-25T19:37:56.781Z,9.00
2018-03-25T19:40:24.242Z,9.00
2018-03-25T19:42:51.694Z,8.90
2018-03-25T19:45:19.168Z,8.90
2018-03-25T19:47:46.646Z,8.90
2018-03-25T19:50:14.896Z,8.80
2018-03-25T19:52:42.374Z,8.70
2018-03-25T19:55:10.609Z,8.50
2018-03-25T19:57:38.082Z,8.40
2018-03-25T20:00:05.538Z,8.40
2018-03-25T20:02:32.992Z,8.30
2018-03-25T20:05:00.462Z,8.30
2018-03-25T20:07:27.920Z,8.20
2018-03-25T20:09:56.886Z,7.70
2018-03-25T20:12:24.347Z,7.70
2018-03-25T20:14:51.809Z,7.70
2018-03-25T20:17:19.270Z,7.70
2018-03-25T20:19:46.735Z,7.60
2018-03-25T20:22:14.194Z,7.40
2018-03-25T20:24:41.642Z,7.30
2018-03-25T20:27:09.102Z,7.10
2018-03-25T20:29:36.578Z,7.00
2018-03-25T20:32:04.811Z,7.00
2018-03-25T20:34:32.283Z,6.90
2018-03-25T20:36:59.754Z,7.10
2018-03-25T20:39:27.290Z,6.80
2018-03-25T20:41:54.741Z,6.90
2018-03-25T20:44:22.210Z,6.80
2018-03-25T20:46:49.677Z,6.80
2018-03-25T20:49:17.148Z,6.70
2018-03-25T20:51:45.379Z,6.50
2018-03-25T20:54:13.613Z,6.20
2018-03-25T20:56:41.086Z,6.20
2018-03-25T20:59:08.545Z,6.20
2018-03-25T21:01:36.009Z,6.10
2018-03-25T21:04:03.466Z,6.10
2018-03-25T21:06:30.936Z,6.10
2018-03-25T21:08:58.399Z,5.90
2018-03-25T21:11:26.279Z,5.90
2018-03-25T21:13:53.735Z,5.90
2018-03-25T21:16:21.193Z,5.90
2018-03-25T21:18:48.667Z,6.00
2018-03-25T21:21:16.131Z,6.00
2018-03-25T21:23:44.359Z,5.80
2018-03-25T21:26:11.822Z,5.80
2018-03-25T21:28:39.300Z,5.90
2018-03-25T21:31:06.794Z,5.80
2018-03-25T21:33:34.280Z,5.90
2018-03-25T21:36:01.761Z,5.70
2018-03-25T21:38:29.219Z,5.30
2018-03-25T21:40:56.680Z,5.20
2018-03-25T21:43:24.121Z,5.10
2018-03-25T21:45:51.586Z,4.90
2018-03-25T21:48:19.720Z,4.80
2018-03-25T21:50:47.177Z,4.90
2018-03-25T21:53:14.717Z,4.80
2018-03-25T21:55:42.949Z,4.80
2018-03-25T21:58:10.404Z,4.70
2018-03-25T22:00:37.874Z,4.80
2018-03-25T22:03:06.103Z,4.80
2018-03-25T22:05:33.574Z,4.70
2018-03-25T22:08:01.040Z,4.70
2018-03-25T22:10:28.501Z,4.80
2018-03-25T22:12:55.959Z,4.90
2018-03-25T22:15:23.420Z,4.80
2018-03-25T22:17:50.875Z,4.70
2018-03-25T22:20:18.352Z,4.60
2018-03-25T22:22:45.805Z,4.50
2018-03-25T22:25:13.269Z,4.50
2018-03-25T22:27:40.719Z,4.50
2018-03-25T22:30:08.192Z,4.50
2018-03-25T22:32:35.644Z,4.50
2018-03-25T22:35:03.207Z,4.50
2018-03-25T22:37:30.659Z,4.40
2018-03-25T22:39:58.113Z,4.20
2018-03-25T22:42:25.575Z,4.00
2018-03-25T22:44:53.025Z,4.00
2018-03-25T22:47:20.485Z,3.90
2018-03-25T22:49:47.948Z,4.00
2018-03-25T22:52:15.405Z,3.90
2018-03-25T22:54:43.634Z,3.90
2018-03-25T22:57:11.097Z,3.80
2018-03-25T22:59:38.581Z,3.80
2018-03-25T23:02:06.016Z,3.90
2018-03-25T23:04:33.468Z,3.80
2018-03-25T23:07:00.922Z,3.80
2018-03-25T23:09:28.365Z,3.70
2018-03-25T23:11:55.878Z,3.60
2018-03-25T23:14:24.107Z,3.50
2018-03-25T23:16:51.560Z,3.40
2018-03-25T23:19:19.015Z,3.40
2018-03-25T23:21:46.483Z,3.40
2018-03-25T23:24:13.981Z,3.50
2018-03-25T23:26:41.398Z,3.50
2018-03-25T23:29:08.858Z,3.50
2018-03-25T23:31:36.315Z,3.50
2018-03-25T23:34:03.763Z,3.50
2018-03-25T23:36:31.222Z,3.50
2018-03-25T23:38:58.674Z,3.60
2018-03-25T23:41:26.142Z,4.00
2018-03-25T23:43:53.598Z,3.50
2018-03-25T23:46:21.823Z,3.80
2018-03-25T23:48:50.068Z,4.00
2018-03-25T23:51:17.533Z,4.00
2018-03-25T23:53:44.983Z,4.00
2018-03-25T23:56:12.438Z,4.00
2018-03-25T23:58:39.902Z,4.20
